Time;durP1;ratioP1;P1;durP2;ratioP2;P2;SDS_P1;SDS_P2;PMS_P1;PMS_P2;Temp;Humidity;BMP_temperature;BMP_pressure;BME280_temperature;BME280_humidity;BME280_pressure;Samples;Min_cycle;Max_cycle;Signal;HPM_P1;HPM_P2
2023/01/15 00:00:24;;;;;;;10.43;9.30;;;22.30;81.50;;;;;;6230611;28;89195;-71
2023/01/15 00:03:27;;;;;;;10.88;9.63;;;22.40;81.50;;;;;;6221184;28;89184;-72
2023/01/15 00:06:29;;;;;;;10.38;9.38;;;22.30;81.40;;;;;;6222566;28;88287;-71
2023/01/15 00:09:33;;;;;;;11.15;9.90;;;22.30;81.40;;;;;;6210983;28;89031;-71
2023/01/15 00:12:35;;;;;;;10.27;9.27;;;22.30;81.40;;;;;;6231674;28;88271;-71
2023/01/15 00:15:37;;;;;;;10.77;9.68;;;22.30;81.40;;;;;;6230340;28;87969;-72
2023/01/15 00:18:39;;;;;;;11.07;9.88;;;22.30;81.40;;;;;;6220645;28;88660;-71
2023/01/15 00:21:41;;;;;;;10.25;9.25;;;22.20;81.30;;;;;;6229598;28;89015;-71
2023/01/15 00:28:04;;;;;;;10.30;9.30;;;22.30;81.40;;;;;;6230479;28;87824;-71
2023/01/15 00:31:06;;;;;;;10.98;9.88;;;22.20;81.30;;;;;;6230024;28;89251;-71
2023/01/15 00:34:08;;;;;;;10.05;9.05;;;22.20;81.30;;;;;;6217664;28;89212;-71
2023/01/15 00:37:10;;;;;;;11.25;10.15;;;22.20;81.30;;;;;;6230987;28;89213;-72
2023/01/15 00:40:15;;;;;;;11.07;9.98;;;22.20;81.30;;;;;;6229359;28;89304;-71
2023/01/15 00:43:17;;;;;;;10.10;9.10;;;22.20;81.30;;;;;;6217175;28;88429;-72
2023/01/15 00:46:19;;;;;;;11.05;9.95;;;22.20;81.30;;;;;;6232051;28;88932;-70
2023/01/15 00:49:21;;;;;;;10.65;9.55;;;22.20;81.20;;;;;;6229751;28;88439;-74
2023/01/15 00:52:23;;;;;;;9.93;9.02;;;22.20;81.20;;;;;;6228485;28;89588;-74
2023/01/15 00:55:26;;;;;;;10.27;9.07;;;22.20;81.30;;;;;;6212477;28;89206;-75
2023/01/15 00:58:29;;;;;;;11.80;9.30;;;22.10;81.30;;;;;;6212481;28;90069;-74
2023/01/15 01:01:31;;;;;;;12.10;9.10;;;22.20;81.30;;;;;;6221903;28;89520;-73
2023/01/15 01:04:33;;;;;;;10.77;9.68;;;22.20;81.30;;;;;;6219829;28;88052;-74
2023/01/15 01:07:35;;;;;;;10.07;9.00;;;22.10;81.30;;;;;;6220078;28;89213;-72
2023/01/15 01:10:38;;;;;;;10.40;9.18;;;22.10;81.30;;;;;;6227568;28;88296;-75
2023/01/15 01:13:41;;;;;;;9.98;8.98;;;22.10;81.30;;;;;;6218334;28;89132;-74
2023/01/15 01:16:43;;;;;;;10.52;9.05;;;22.10;81.30;;;;;;6217289;28;89224;-74
2023/01/15 01:19:45;;;;;;;11.90;9.32;;;22.10;81.30;;;;;;6224288;28;88990;-74
2023/01/15 01:22:49;;;;;;;10.10;9.10;;;22.10;81.30;;;;;;6225785;28;89041;-74
2023/01/15 01:25:52;;;;;;;11.13;8.93;;;22.10;81.40;;;;;;6225722;28;89346;-74
2023/01/15 01:28:55;;;;;;;9.93;8.93;;;22.10;81.30;;;;;;6223117;28;90008;-73
2023/01/15 01:31:57;;;;;;;9.43;8.48;;;22.10;81.30;;;;;;6227181;28;89347;-75
2023/01/15 01:34:59;;;;;;;9.98;8.68;;;22.20;81.40;;;;;;6223230;28;89342;-71
2023/01/15 01:38:01;;;;;;;9.88;8.68;;;22.10;81.40;;;;;;6223121;28;89028;-72
2023/01/15 01:41:05;;;;;;;15.30;8.80;;;22.10;81.60;;;;;;6230540;28;89309;-71
2023/01/15 01:44:28;;;;;;;9.75;8.68;;;22.10;81.50;;;;;;6224495;28;89049;-72
2023/01/15 01:47:34;;;;;;;10.02;8.57;;;22.10;81.60;;;;;;6227436;28;90740;-71
2023/01/15 01:50:39;;;;;;;9.48;8.48;;;22.10;81.50;;;;;;6227871;28;88769;-72
2023/01/15 01:53:41;;;;;;;9.73;8.73;;;22.10;81.50;;;;;;6232491;28;89079;-72
2023/01/15 01:56:43;;;;;;;9.95;8.60;;;22.00;81.40;;;;;;6231339;28;89098;-72
2023/01/15 01:59:46;;;;;;;9.18;8.05;;;22.10;81.40;;;;;;6233284;28;90030;-72
2023/01/15 02:02:51;;;;;;;10.32;8.30;;;22.10;81.50;;;;;;6210917;28;88951;-70
2023/01/15 02:05:56;;;;;;;9.43;8.52;;;22.00;81.40;;;;;;6232969;28;89143;-72
2023/01/15 02:08:58;;;;;;;8.77;7.72;;;22.00;81.40;;;;;;6225554;28;89070;-72
2023/01/15 02:12:06;;;;;;;9.70;8.60;;;22.00;81.30;;;;;;6220415;28;89377;-72
2023/01/15 02:15:13;;;;;;;9.40;8.32;;;22.00;81.30;;;;;;6232362;28;89401;-72
2023/01/15 02:18:25;;;;;;;9.05;8.13;;;22.00;81.40;;;;;;6220958;28;89101;-71
2023/01/15 02:21:41;;;;;;;8.77;7.88;;;22.00;81.30;;;;;;6232922;28;88316;-71
2023/01/15 02:24:55;;;;;;;9.18;8.27;;;22.00;81.30;;;;;;6228468;28;89020;-72
2023/01/15 02:28:04;;;;;;;9.07;8.18;;;22.00;81.30;;;;;;6234097;28;89138;-71
2023/01/15 02:31:12;;;;;;;8.38;7.57;;;22.00;81.20;;;;;;6232755;28;90255;-72
2023/01/15 02:34:20;;;;;;;10.07;8.13;;;22.00;81.30;;;;;;6230302;28;88067;-71
2023/01/15 02:37:27;;;;;;;8.68;7.78;;;22.00;81.30;;;;;;6223668;28;89074;-71
2023/01/15 02:40:31;;;;;;;8.77;7.88;;;22.00;81.30;;;;;;6235204;28;87919;-72
2023/01/15 02:43:37;;;;;;;8.50;7.70;;;22.00;81.30;;;;;;6231733;28;89069;-72
2023/01/15 02:46:41;;;;;;;8.93;8.07;;;22.00;81.20;;;;;;6230043;28;88993;-70
2023/01/15 02:49:44;;;;;;;9.45;8.10;;;21.90;81.10;;;;;;6228988;28;89478;-72
2023/01/15 02:52:49;;;;;;;8.82;7.93;;;21.90;81.20;;;;;;6234479;28;88332;-72
2023/01/15 02:55:54;;;;;;;8.80;7.90;;;21.90;81.10;;;;;;6226603;28;89298;-71
2023/01/15 02:59:04;;;;;;;11.82;8.38;;;21.90;81.20;;;;;;6230457;28;89451;-71
2023/01/15 03:02:11;;;;;;;10.25;7.68;;;21.90;81.20;;;;;;6232443;28;90013;-72
2023/01/15 03:05:18;;;;;;;10.15;8.38;;;21.90;81.10;;;;;;6232663;28;88302;-72
2023/01/15 03:08:20;;;;;;;9.65;8.65;;;21.90;81.20;;;;;;6228207;28;89026;-71
2023/01/15 03:11:22;;;;;;;8.98;8.07;;;21.90;81.10;;;;;;6232112;28;89423;-71
2023/01/15 03:14:36;;;;;;;9.00;8.05;;;21.90;81.10;;;;;;6218587;28;89121;-72
2023/01/15 03:17:47;;;;;;;9.45;8.48;;;21.90;81.10;;;;;;6226094;28;87895;-72
2023/01/15 03:20:59;;;;;;;9.13;8.20;;;21.90;81.10;;;;;;6232837;28;91301;-71
2023/01/15 03:24:04;;;;;;;9.60;8.60;;;21.90;81.10;;;;;;6223889;28;88275;-71
2023/01/15 03:27:07;;;;;;;9.60;8.55;;;21.80;81.10;;;;;;6229657;28;89112;-70
2023/01/15 03:30:14;;;;;;;9.45;8.55;;;21.80;81.10;;;;;;6219520;28;89141;-72
2023/01/15 03:33:16;;;;;;;9.45;8.43;;;21.80;81.10;;;;;;6231294;28;90026;-70
2023/01/15 03:36:18;;;;;;;8.88;8.05;;;21.80;81.10;;;;;;6222468;28;89275;-72
2023/01/15 03:39:20;;;;;;;9.77;8.70;;;21.80;81.10;;;;;;6226500;28;89669;-72
2023/01/15 03:42:35;;;;;;;9.63;8.65;;;21.80;81.10;;;;;;6230457;28;89078;-71
2023/01/15 03:45:42;;;;;;;10.50;9.15;;;21.80;81.10;;;;;;6222826;28;87915;-72
2023/01/15 03:48:51;;;;;;;9.23;8.32;;;21.80;81.00;;;;;;6218908;28;89291;-72
2023/01/15 03:52:01;;;;;;;10.85;9.00;;;21.80;81.00;;;;;;6231682;28;89115;-71
2023/01/15 03:55:11;;;;;;;11.80;8.80;;;21.80;81.00;;;;;;6213755;28;88291;-71
2023/01/15 03:58:17;;;;;;;9.80;8.15;;;21.80;81.00;;;;;;6232640;28;88049;-71
2023/01/15 04:01:27;;;;;;;9.82;8.82;;;21.70;81.00;;;;;;6232237;28;89106;-71
2023/01/15 04:04:29;;;;;;;9.82;8.75;;;21.80;81.10;;;;;;6228543;28;89984;-71
2023/01/15 04:07:32;;;;;;;10.25;8.80;;;21.80;81.10;;;;;;6219605;28;89138;-71
2023/01/15 04:10:34;;;;;;;9.57;8.65;;;21.80;81.10;;;;;;6231669;28;89143;-71
2023/01/15 04:13:36;;;;;;;9.65;8.65;;;21.80;81.10;;;;;;6232288;28;89006;-71
2023/01/15 04:16:39;;;;;;;10.57;8.77;;;21.80;81.10;;;;;;6232083;28;89102;-71
2023/01/15 04:19:43;;;;;;;9.85;8.85;;;21.70;81.00;;;;;;6210044;28;89450;-71
2023/01/15 04:22:45;;;;;;;10.02;9.02;;;21.70;81.00;;;;;;6220844;28;89157;-71
2023/01/15 04:25:47;;;;;;;10.07;9.07;;;21.80;81.00;;;;;;6227236;28;87249;-72
2023/01/15 04:28:49;;;;;;;9.57;8.65;;;21.70;80.90;;;;;;6231865;28;89191;-71
2023/01/15 04:31:56;;;;;;;9.65;8.65;;;21.70;81.00;;;;;;6216054;28;89308;-72
2023/01/15 04:34:58;;;;;;;10.20;8.98;;;21.70;80.80;;;;;;6228897;28;90393;-71
2023/01/15 04:38:01;;;;;;;9.57;8.57;;;21.70;80.80;;;;;;6230436;28;89033;-71
2023/01/15 04:44:26;;;;;;;9.07;8.18;;;21.70;80.80;;;;;;6231905;28;87172;-71
2023/01/15 04:47:31;;;;;;;9.70;8.70;;;21.80;80.80;;;;;;6230207;28;89067;-71
2023/01/15 04:50:34;;;;;;;9.70;8.70;;;21.80;80.80;;;;;;6227957;28;89466;-71
2023/01/15 04:53:36;;;;;;;9.60;8.63;;;21.80;80.60;;;;;;6226074;28;89123;-71
2023/01/15 04:56:40;;;;;;;9.48;8.48;;;21.80;80.60;;;;;;6221639;28;88601;-71
2023/01/15 04:59:42;;;;;;;9.88;8.93;;;21.80;80.60;;;;;;6222402;28;89040;-72
2023/01/15 05:02:45;;;;;;;9.20;8.30;;;21.80;80.50;;;;;;6230297;28;89146;-71
2023/01/15 05:05:49;;;;;;;9.05;8.18;;;21.80;80.50;;;;;;6206071;28;90359;-72
2023/01/15 05:08:52;;;;;;;9.52;8.52;;;21.80;80.50;;;;;;6231973;28;89144;-71
2023/01/15 05:11:54;;;;;;;9.45;8.38;;;21.90;80.40;;;;;;6231431;28;89095;-72
2023/01/15 05:14:56;;;;;;;9.80;8.65;;;21.90;80.40;;;;;;6214314;28;89134;-70
2023/01/15 05:17:59;;;;;;;9.35;8.38;;;21.90;80.30;;;;;;6224857;28;89461;-71
2023/01/15 05:21:02;;;;;;;9.90;8.65;;;21.90;80.30;;;;;;6217707;28;90086;-70
2023/01/15 05:24:07;;;;;;;9.30;8.40;;;21.90;80.30;;;;;;6230441;28;89178;-71
2023/01/15 05:27:09;;;;;;;8.93;8.07;;;22.00;80.30;;;;;;6230976;28;87102;-71
2023/01/15 05:30:13;;;;;;;9.32;8.13;;;22.00;80.20;;;;;;6218396;28;88055;-71
2023/01/15 05:33:16;;;;;;;8.80;7.90;;;22.00;80.10;;;;;;6229406;28;89224;-71
2023/01/15 05:36:21;;;;;;;9.65;8.70;;;22.00;80.10;;;;;;6221585;28;89037;-71
2023/01/15 05:39:23;;;;;;;9.18;8.27;;;22.10;80.20;;;;;;6225106;28;89137;-71
2023/01/15 05:42:25;;;;;;;8.90;8.00;;;22.00;80.10;;;;;;6228733;28;89134;-71
2023/01/15 05:45:27;;;;;;;9.70;8.32;;;22.10;80.10;;;;;;6215982;28;89372;-71
2023/01/15 05:48:31;;;;;;;8.63;7.72;;;22.10;80.10;;;;;;6225776;28;89025;-69
2023/01/15 05:51:35;;;;;;;9.07;8.18;;;22.10;80.00;;;;;;6221684;28;89130;-71
2023/01/15 05:54:37;;;;;;;8.57;7.75;;;22.10;80.00;;;;;;6216040;28;90337;-70
2023/01/15 05:57:39;;;;;;;8.50;7.65;;;22.10;80.00;;;;;;6228954;28;87589;-71
2023/01/15 06:00:41;;;;;;;8.68;7.88;;;22.10;80.00;;;;;;6230699;28;90589;-71
2023/01/15 06:03:45;;;;;;;8.82;7.95;;;22.10;79.90;;;;;;6229771;28;87975;-71
2023/01/15 06:06:48;;;;;;;9.05;8.15;;;22.20;80.00;;;;;;6227007;28;90335;-71
2023/01/15 06:09:50;;;;;;;8.60;7.80;;;22.10;79.90;;;;;;6229133;28;88063;-71
2023/01/15 06:12:53;;;;;;;8.40;7.60;;;22.10;79.90;;;;;;6225831;28;89063;-72
2023/01/15 06:15:54;;;;;;;8.05;7.30;;;22.20;79.90;;;;;;6216772;28;88002;-71
2023/01/15 06:19:02;;;;;;;8.50;7.60;;;22.10;79.90;;;;;;6220942;28;89139;-70
2023/01/15 06:22:05;;;;;;;8.15;7.35;;;22.20;79.80;;;;;;6228673;28;89063;-71
2023/01/15 06:25:08;;;;;;;8.60;7.70;;;22.20;79.80;;;;;;6218330;28;89019;-71
2023/01/15 06:28:10;;;;;;;7.80;7.10;;;22.20;79.80;;;;;;6229534;28;88361;-71
2023/01/15 06:31:14;;;;;;;7.95;7.15;;;22.20;79.80;;;;;;6232734;28;89109;-72
2023/01/15 06:34:17;;;;;;;7.68;6.90;;;22.20;79.80;;;;;;6227646;28;88869;-71
2023/01/15 06:37:20;;;;;;;7.57;6.88;;;22.20;79.70;;;;;;6221368;28;90074;-71
2023/01/15 06:40:22;;;;;;;8.05;7.30;;;22.20;79.70;;;;;;6209537;28;89129;-71
2023/01/15 06:50:15;;;;;;;8.07;7.28;;;22.20;79.70;;;;;;6190859;28;87112;-72
2023/01/15 06:53:17;;;;;;;7.88;7.07;;;22.20;79.70;;;;;;6221891;28;89194;-70
2023/01/15 06:56:19;;;;;;;7.75;7.05;;;22.30;79.80;;;;;;6218863;28;89078;-71
2023/01/15 06:59:21;;;;;;;7.38;6.68;;;22.30;79.80;;;;;;6225647;28;88294;-71
2023/01/15 07:02:23;;;;;;;7.85;7.15;;;22.30;79.80;;;;;;6225336;28;89035;-71
2023/01/15 07:05:26;;;;;;;7.85;7.07;;;22.30;79.70;;;;;;6233521;28;87995;-71
2023/01/15 07:08:28;;;;;;;7.65;6.95;;;22.30;79.70;;;;;;6229097;28;90327;-71
2023/01/15 07:11:31;;;;;;;8.23;6.70;;;22.30;79.60;;;;;;6220822;28;87765;-70
2023/01/15 07:14:33;;;;;;;7.65;6.95;;;22.30;79.60;;;;;;6230361;28;89101;-70
2023/01/15 07:17:35;;;;;;;7.20;6.50;;;22.30;79.60;;;;;;6218063;28;89141;-70
2023/01/15 07:20:38;;;;;;;7.30;6.60;;;22.30;79.60;;;;;;6213830;28;88014;-71
2023/01/15 07:23:40;;;;;;;6.90;6.22;;;22.30;79.60;;;;;;6232801;28;87728;-71
2023/01/15 07:26:44;;;;;;;7.15;6.45;;;22.30;79.60;;;;;;6221755;28;88927;-71
2023/01/15 07:29:46;;;;;;;6.82;6.13;;;22.30;79.60;;;;;;6233788;28;88407;-71
2023/01/15 07:32:48;;;;;;;7.25;6.53;;;22.30;79.50;;;;;;6230424;28;89004;-71
2023/01/15 07:35:52;;;;;;;7.00;6.30;;;22.30;79.40;;;;;;6218894;28;89427;-71
2023/01/15 07:38:54;;;;;;;6.85;6.15;;;22.30;79.40;;;;;;6232407;28;90387;-71
2023/01/15 07:51:56;;;;;;;6.72;6.03;;;22.40;79.40;;;;;;6227841;28;87196;-70
2023/01/15 07:54:58;;;;;;;6.88;6.15;;;22.40;79.40;;;;;;6214091;28;88049;-71
2023/01/15 07:58:00;;;;;;;6.68;5.95;;;22.40;79.40;;;;;;6231095;28;89093;-70
2023/01/15 08:01:02;;;;;;;6.97;6.28;;;22.40;79.40;;;;;;6228775;28;88409;-71
2023/01/15 08:04:04;;;;;;;6.93;6.20;;;22.40;79.40;;;;;;6230522;28;89187;-71
2023/01/15 08:07:08;;;;;;;6.35;5.75;;;22.40;79.40;;;;;;6210267;28;89144;-72
2023/01/15 08:10:11;;;;;;;6.60;5.95;;;22.40;79.40;;;;;;6218630;28;90048;-72
2023/01/15 08:16:35;;;;;;;6.47;5.88;;;22.40;79.40;;;;;;6226588;28;87727;-70
2023/01/15 08:19:37;;;;;;;6.50;5.80;;;22.40;79.30;;;;;;6223867;28;87685;-71
2023/01/15 08:22:41;;;;;;;6.30;5.70;;;22.40;80.30;;;;;;6216483;28;89126;-71
2023/01/15 08:25:43;;;;;;;6.72;6.03;;;22.40;79.30;;;;;;6221780;28;89119;-71
2023/01/15 08:28:45;;;;;;;6.03;5.43;;;22.40;79.30;;;;;;6224347;28;88528;-71
2023/01/15 08:31:47;;;;;;;6.70;5.75;;;22.50;80.30;;;;;;6224937;28;88439;-72
2023/01/15 08:34:49;;;;;;;6.65;5.75;;;22.40;79.30;;;;;;6227023;28;89122;-71
2023/01/15 08:37:53;;;;;;;6.10;5.60;;;22.40;79.30;;;;;;6215846;28;89262;-72
2023/01/15 08:40:58;;;;;;;6.05;5.45;;;22.40;79.30;;;;;;6224955;28;90136;-71
2023/01/15 08:44:01;;;;;;;6.18;5.53;;;22.40;79.30;;;;;;6208342;28;89089;-71
2023/01/15 08:47:03;;;;;;;5.85;5.28;;;22.40;79.30;;;;;;6229381;28;88205;-72
2023/01/15 08:50:07;;;;;;;6.07;5.50;;;22.40;79.30;;;;;;6228474;28;89426;-71
2023/01/15 08:53:10;;;;;;;5.70;5.13;;;22.50;79.30;;;;;;6164979;28;1257093;-71
2023/01/15 08:56:14;;;;;;;6.38;5.78;;;22.50;79.30;;;;;;6225093;28;89015;-71
2023/01/15 08:59:16;;;;;;;6.25;5.63;;;22.50;79.30;;;;;;6230498;28;89135;-71
2023/01/15 09:02:18;;;;;;;6.38;5.75;;;22.50;79.30;;;;;;6223203;28;88329;-69
2023/01/15 09:05:20;;;;;;;6.00;5.40;;;22.50;79.30;;;;;;6226374;28;89173;-71
2023/01/15 09:08:23;;;;;;;5.95;5.35;;;22.50;79.30;;;;;;6229599;28;89073;-71
2023/01/15 09:11:26;;;;;;;5.45;4.95;;;22.50;79.20;;;;;;6225950;28;90049;-71
2023/01/15 09:14:28;;;;;;;6.07;5.10;;;22.50;79.20;;;;;;6226934;28;88847;-71
2023/01/15 09:17:31;;;;;;;5.70;5.10;;;22.50;79.20;;;;;;6213518;28;89389;-71
2023/01/15 09:20:33;;;;;;;5.55;5.05;;;22.50;79.20;;;;;;6227513;28;89098;-71
2023/01/15 09:23:37;;;;;;;5.50;5.00;;;22.50;79.20;;;;;;6213169;28;88977;-71
2023/01/15 09:26:40;;;;;;;5.50;5.00;;;22.50;79.10;;;;;;6229516;28;89105;-71
2023/01/15 09:29:42;;;;;;;5.60;5.10;;;22.50;79.10;;;;;;6231113;28;89003;-70
2023/01/15 09:32:44;;;;;;;5.28;4.80;;;22.50;79.20;;;;;;6229482;28;88282;-71
2023/01/15 09:35:48;;;;;;;5.38;4.88;;;22.50;79.10;;;;;;6229878;28;89453;-69
2023/01/15 09:38:51;;;;;;;7.22;5.47;;;22.50;79.20;;;;;;6214813;28;89156;-71
2023/01/15 09:42:07;;;;;;;5.50;5.00;;;22.50;79.10;;;;;;6206480;28;89987;-71
2023/01/15 09:45:17;;;;;;;5.57;4.97;;;22.50;79.10;;;;;;6224128;28;89049;-70
2023/01/15 09:48:27;;;;;;;5.35;4.85;;;22.50;79.10;;;;;;6217819;28;88005;-70
2023/01/15 09:51:39;;;;;;;5.32;4.75;;;22.50;79.10;;;;;;6219186;28;87976;-71
2023/01/15 09:54:55;;;;;;;5.28;4.78;;;22.60;79.20;;;;;;6227091;28;89088;-70
2023/01/15 09:58:02;;;;;;;5.05;4.55;;;22.50;79.10;;;;;;6213811;28;89002;-71
2023/01/15 10:01:05;;;;;;;5.40;4.90;;;22.50;79.10;;;;;;6225151;28;89103;-70
2023/01/15 10:04:13;;;;;;;5.68;5.07;;;22.60;79.10;;;;;;6225833;28;88256;-71
2023/01/15 10:07:22;;;;;;;5.32;4.82;;;22.50;79.00;;;;;;6215673;28;89053;-70
2023/01/15 10:10:32;;;;;;;5.07;4.63;;;22.50;79.00;;;;;;6230580;28;89271;-71
2023/01/15 10:13:41;;;;;;;6.07;4.90;;;22.50;79.00;;;;;;6225634;28;90079;-70
2023/01/15 10:16:43;;;;;;;4.70;4.30;;;22.60;79.10;;;;;;6228534;28;89423;-70
2023/01/15 10:19:45;;;;;;;5.78;4.78;;;22.60;79.10;;;;;;6239105;28;89407;-71
2023/01/15 10:23:13;;;;;;;5.30;4.60;;;22.50;78.90;;;;;;6236856;28;89201;-71
2023/01/15 10:26:30;;;;;;;4.50;4.10;;;22.60;79.00;;;;;;6222838;28;89178;-71
2023/01/15 10:29:40;;;;;;;5.05;4.55;;;22.60;79.00;;;;;;6218254;28;89036;-70
2023/01/15 10:32:47;;;;;;;5.57;4.70;;;22.50;78.90;;;;;;6222875;28;89309;-71
2023/01/15 10:35:56;;;;;;;5.00;4.50;;;22.50;78.90;;;;;;6233713;28;88300;-70
2023/01/15 10:39:05;;;;;;;4.63;4.22;;;22.60;78.90;;;;;;6220302;28;89131;-71
2023/01/15 10:42:23;;;;;;;5.00;4.55;;;22.60;78.90;;;;;;6231467;28;89084;-71
2023/01/15 10:45:28;;;;;;;5.00;4.50;;;22.60;78.90;;;;;;6208586;28;90410;-71
2023/01/15 10:48:38;;;;;;;4.65;4.25;;;22.60;78.90;;;;;;6210738;28;89783;-71
2023/01/15 10:51:44;;;;;;;4.72;4.30;;;22.60;79.00;;;;;;6232759;28;89111;-70
2023/01/15 10:54:49;;;;;;;5.03;4.50;;;22.60;78.90;;;;;;6227673;28;89113;-71
2023/01/15 10:58:00;;;;;;;4.90;4.10;;;22.60;78.90;;;;;;6224782;28;89094;-70
2023/01/15 11:01:06;;;;;;;4.63;4.22;;;22.60;78.90;;;;;;6213005;28;88296;-70
2023/01/15 11:04:11;;;;;;;4.55;4.13;;;22.60;78.90;;;;;;6221706;28;89453;-71
2023/01/15 11:07:13;;;;;;;4.90;4.40;;;22.60;79.00;;;;;;6215858;28;88432;-71
2023/01/15 11:10:18;;;;;;;4.63;4.22;;;22.60;79.00;;;;;;6227648;28;88946;-70
2023/01/15 11:20:10;;;;;;;5.22;4.00;;;22.60;79.00;;;;;;6223153;28;87448;-71
2023/01/15 11:23:15;;;;;;;5.38;4.05;;;22.60;78.90;;;;;;6214389;28;89157;-71
2023/01/15 11:26:23;;;;;;;4.68;4.28;;;22.60;78.90;;;;;;6222867;28;89147;-70
2023/01/15 11:29:32;;;;;;;4.53;4.13;;;22.60;78.90;;;;;;6232885;28;89135;-71
2023/01/15 11:32:36;;;;;;;4.93;4.10;;;22.60;78.90;;;;;;6231417;28;89194;-71
2023/01/15 11:35:38;;;;;;;4.63;4.22;;;22.60;78.90;;;;;;6231544;28;89022;-71
2023/01/15 11:38:45;;;;;;;4.20;3.80;;;22.60;78.90;;;;;;6214189;28;88339;-71
2023/01/15 11:52:08;;;;;;;7.40;4.38;;;22.60;79.40;;;;;;6230876;28;87129;-71
2023/01/15 11:55:12;;;;;;;6.45;4.20;;;22.60;79.60;;;;;;6224890;28;89170;-70
2023/01/15 11:58:15;;;;;;;8.05;4.50;;;22.60;79.80;;;;;;6219500;28;87948;-69
2023/01/15 12:01:26;;;;;;;10.35;5.03;;;22.60;80.10;;;;;;6225869;28;89379;-70
2023/01/15 12:04:35;;;;;;;7.15;5.10;;;22.60;80.00;;;;;;6224844;28;89390;-71
2023/01/15 12:07:39;;;;;;;5.47;4.70;;;22.70;80.00;;;;;;6205968;28;89015;-69
2023/01/15 12:11:03;;;;;;;6.13;4.82;;;22.60;80.00;;;;;;6214991;28;88266;-69
2023/01/15 12:14:32;;;;;;;7.65;5.28;;;22.60;80.10;;;;;;6209331;28;89140;-69
2023/01/15 12:17:55;;;;;;;6.43;4.90;;;22.70;80.20;;;;;;6216418;28;89026;-70
2023/01/15 12:21:03;;;;;;;8.90;5.40;;;22.70;80.20;;;;;;6219204;28;90074;-71
2023/01/15 12:24:33;;;;;;;7.15;5.22;;;22.70;80.20;;;;;;6224690;28;88717;-71
2023/01/15 12:27:51;;;;;;;8.23;5.72;;;22.60;80.20;;;;;;6221756;28;89097;-71
2023/01/15 12:31:00;;;;;;;7.55;6.10;;;22.70;80.30;;;;;;6212825;28;89479;-73
2023/01/15 12:34:13;;;;;;;7.40;6.10;;;22.70;80.30;;;;;;6215384;28;89054;-71
2023/01/15 12:37:22;;;;;;;8.88;6.22;;;22.60;80.20;;;;;;6212814;28;89040;-73
2023/01/15 12:40:29;;;;;;;8.82;6.40;;;22.70;80.30;;;;;;6214369;28;89695;-72
2023/01/15 12:46:51;;;;;;;6.85;6.15;;;22.70;80.30;;;;;;6207299;28;88082;-73
2023/01/15 12:50:01;;;;;;;9.02;6.93;;;22.70;80.30;;;;;;6216153;28;89571;-72
2023/01/15 12:53:12;;;;;;;7.10;6.40;;;22.70;80.30;;;;;;6211172;28;90158;-72
2023/01/15 12:56:21;;;;;;;8.63;5.93;;;22.70;80.30;;;;;;6210650;28;89064;-71
2023/01/15 12:59:30;;;;;;;7.78;6.43;;;22.70;80.30;;;;;;6221665;28;88298;-70
2023/01/15 13:02:38;;;;;;;9.43;6.90;;;22.70;80.50;;;;;;6222286;28;89186;-69
2023/01/15 13:05:47;;;;;;;10.00;6.80;;;22.70;80.60;;;;;;6217018;28;89442;-70
2023/01/15 13:08:56;;;;;;;9.35;6.93;;;22.70;80.50;;;;;;6217502;28;89368;-69
2023/01/15 13:11:58;;;;;;;8.15;6.95;;;22.70;80.50;;;;;;6218326;28;89060;-70
2023/01/15 13:15:01;;;;;;;8.15;6.60;;;22.70;80.50;;;;;;6219082;28;88293;-70
2023/01/15 13:18:13;;;;;;;8.75;6.85;;;22.70;80.50;;;;;;6221862;28;89330;-70
2023/01/15 13:21:19;;;;;;;8.35;7.07;;;22.60;80.50;;;;;;6220173;28;89180;-71
2023/01/15 13:25:01;;;;;;;7.45;6.68;;;22.70;80.50;;;;;;6215498;28;90253;-73
2023/01/15 13:28:20;;;;;;;7.60;6.70;;;22.60;80.60;;;;;;6178661;28;89299;-72
2023/01/15 13:31:56;;;;;;;8.00;6.80;;;22.60;80.50;;;;;;6218595;28;89059;-72
2023/01/15 13:35:05;;;;;;;8.00;7.20;;;22.70;80.50;;;;;;6180225;28;89087;-71
2023/01/15 13:38:18;;;;;;;9.88;7.95;;;22.70;81.00;;;;;;6212007;28;89408;-72
2023/01/15 13:44:47;;;;;;;8.55;7.57;;;22.80;80.60;;;;;;6225807;28;88550;-71
2023/01/15 13:47:52;;;;;;;8.48;7.47;;;22.80;80.50;;;;;;6218479;28;88460;-71
2023/01/15 13:50:57;;;;;;;8.80;7.78;;;22.90;80.90;;;;;;6229492;28;89113;-71
2023/01/15 13:54:01;;;;;;;9.40;7.55;;;22.90;81.00;;;;;;6221578;28;89175;-71
2023/01/15 13:57:10;;;;;;;10.73;8.35;;;22.90;80.80;;;;;;6222598;28;89970;-70
2023/01/15 14:00:28;;;;;;;9.75;7.68;;;23.00;80.80;;;;;;6225450;28;89037;-70
2023/01/15 14:03:32;;;;;;;9.35;8.35;;;23.00;80.20;;;;;;6229152;28;87812;-69
2023/01/15 14:06:43;;;;;;;10.70;8.70;;;23.00;80.20;;;;;;6228000;28;89047;-70
2023/01/15 14:09:47;;;;;;;12.00;8.10;;;23.00;80.30;;;;;;6219075;28;89232;-70
2023/01/15 14:12:59;;;;;;;9.18;8.18;;;22.90;80.20;;;;;;6227734;28;89597;-70
2023/01/15 14:16:12;;;;;;;11.18;8.32;;;23.00;80.30;;;;;;6213694;28;89073;-70
2023/01/15 14:19:39;;;;;;;8.98;8.07;;;22.90;80.20;;;;;;6231760;28;88349;-70
2023/01/15 14:22:59;;;;;;;9.10;7.75;;;23.00;80.30;;;;;;6227054;28;89055;-69
2023/01/15 14:26:11;;;;;;;9.40;8.07;;;22.90;80.10;;;;;;6222622;28;89311;-70
2023/01/15 14:29:38;;;;;;;9.63;6.93;;;22.90;80.10;;;;;;6218323;28;89963;-69
2023/01/15 14:32:58;;;;;;;9.00;7.57;;;22.90;80.10;;;;;;6226931;28;89565;-70
2023/01/15 14:36:11;;;;;;;7.07;6.38;;;22.90;80.00;;;;;;6229275;28;89281;-69
2023/01/15 14:39:28;;;;;;;6.30;4.45;;;22.90;78.70;;;;;;6226318;28;89814;-70
2023/01/15 14:45:56;;;;;;;4.28;2.70;;;22.80;72.70;;;;;;6226919;28;88885;-70
2023/01/15 14:48:58;;;;;;;3.72;2.22;;;22.80;71.70;;;;;;6231640;28;89258;-71
2023/01/15 14:52:02;;;;;;;2.83;2.03;;;22.70;71.10;;;;;;6230927;28;88310;-71
2023/01/15 14:55:10;;;;;;;4.18;2.60;;;22.70;71.30;;;;;;6224892;28;88019;-72
2023/01/15 14:58:26;;;;;;;3.58;2.75;;;22.70;72.00;;;;;;6227507;28;89214;-71
2023/01/15 15:01:39;;;;;;;2.60;2.40;;;22.70;72.50;;;;;;6220626;28;90024;-72
2023/01/15 15:04:44;;;;;;;2.90;2.42;;;22.70;73.00;;;;;;6221258;28;89209;-71
2023/01/15 15:07:51;;;;;;;2.75;2.50;;;22.70;73.20;;;;;;6230085;28;89451;-72
2023/01/15 15:10:54;;;;;;;3.17;2.88;;;22.70;73.40;;;;;;6223211;28;88013;-71
2023/01/15 15:14:00;;;;;;;2.75;2.53;;;22.70;73.60;;;;;;6223976;28;89340;-72
2023/01/15 15:17:07;;;;;;;3.13;2.80;;;22.70;73.80;;;;;;6229351;28;89012;-71
2023/01/15 15:20:24;;;;;;;3.10;2.80;;;22.70;74.10;;;;;;6216964;28;89258;-73
2023/01/15 15:23:34;;;;;;;3.00;2.70;;;22.70;74.30;;;;;;6227540;28;87630;-70
2023/01/15 15:26:38;;;;;;;3.03;2.75;;;22.70;74.50;;;;;;6224720;28;89060;-71
2023/01/15 15:29:41;;;;;;;3.00;2.70;;;22.70;74.70;;;;;;6224025;28;87599;-72
2023/01/15 15:32:45;;;;;;;3.45;2.88;;;22.80;74.90;;;;;;6223423;28;90428;-75
2023/01/15 15:35:50;;;;;;;4.32;2.97;;;22.70;75.00;;;;;;6221005;28;88083;-74
2023/01/15 15:38:53;;;;;;;4.57;3.65;;;22.80;75.20;;;;;;6217986;28;88161;-75
2023/01/15 15:48:57;;;;;;;8.60;5.97;;;22.80;75.60;;;;;;6228042;28;87370;-73
2023/01/15 15:52:00;;;;;;;10.27;6.97;;;22.80;75.70;;;;;;6226996;28;89100;-72
2023/01/15 15:55:05;;;;;;;13.85;7.93;;;22.80;75.70;;;;;;6227382;28;87342;-74
2023/01/15 15:58:12;;;;;;;15.85;9.77;;;22.80;75.90;;;;;;6217178;28;88559;-73
2023/01/15 16:01:16;;;;;;;16.95;10.80;;;22.80;75.90;;;;;;6227902;28;89073;-73
2023/01/15 16:04:20;;;;;;;20.02;12.00;;;22.80;76.10;;;;;;6225396;28;88914;-74
2023/01/15 16:07:25;;;;;;;22.77;13.57;;;22.80;76.10;;;;;;6228396;28;89283;-75
2023/01/15 16:10:32;;;;;;;23.25;13.77;;;22.80;76.30;;;;;;6226065;28;88940;-73
2023/01/15 16:13:39;;;;;;;24.23;15.50;;;22.90;76.40;;;;;;6226414;28;88322;-73
2023/01/15 16:16:45;;;;;;;26.33;16.65;;;22.90;76.40;;;;;;6225270;28;87921;-72
2023/01/15 16:19:48;;;;;;;28.55;18.17;;;22.90;76.40;;;;;;6216944;28;89411;-74
2023/01/15 16:22:57;;;;;;;32.13;19.10;;;22.90;76.50;;;;;;6226079;28;89603;-71
2023/01/15 16:26:04;;;;;;;35.38;19.42;;;22.90;76.50;;;;;;6220805;28;87746;-72
2023/01/15 16:29:17;;;;;;;34.75;20.45;;;22.90;76.60;;;;;;6217450;28;88244;-74
2023/01/15 16:32:27;;;;;;;34.25;20.55;;;22.90;76.60;;;;;;6224854;28;88945;-72
2023/01/15 16:35:31;;;;;;;33.72;21.15;;;22.90;76.70;;;;;;6220213;28;89061;-72
2023/01/15 16:38:39;;;;;;;35.38;22.08;;;22.90;76.70;;;;;;6217757;28;89330;-72
2023/01/15 16:41:42;;;;;;;36.92;22.70;;;22.90;76.80;;;;;;6220524;28;87999;-71
2023/01/15 16:44:52;;;;;;;36.40;22.92;;;22.90;76.80;;;;;;6211520;28;87116;-70
2023/01/15 16:48:11;;;;;;;38.58;23.27;;;22.90;76.90;;;;;;6216561;28;89468;-70
2023/01/15 16:51:32;;;;;;;39.90;23.73;;;22.90;77.00;;;;;;6223576;28;88067;-70
2023/01/15 16:54:44;;;;;;;43.65;24.80;;;22.90;77.10;;;;;;6230720;28;89119;-70
2023/01/15 16:57:47;;;;;;;41.08;24.02;;;22.90;77.10;;;;;;6230687;28;89013;-70
2023/01/15 17:00:54;;;;;;;40.30;23.77;;;22.90;77.10;;;;;;6226857;28;87866;-70
2023/01/15 17:04:03;;;;;;;40.53;25.08;;;22.90;77.20;;;;;;6219536;28;89021;-70